sensor_id;sensor_type;location;lat;lon;timestamp;P1;durP1;ratioP1;P2;durP2;ratioP2
10303;SDS011;5197;48.152;8.590;2023-09-07T00:00:49;4.80;;;4.50;;
10303;SDS011;5197;48.152;8.590;2023-09-07T00:03:16;5.77;;;5.30;;
10303;SDS011;5197;48.152;8.590;2023-09-07T00:05:43;6.23;;;4.80;;
10303;SDS011;5197;48.152;8.590;2023-09-07T00:08:11;7.87;;;5.33;;
10303;SDS011;5197;48.152;8.590;2023-09-07T00:10:38;5.67;;;4.87;;
10303;SDS011;5197;48.152;8.590;2023-09-07T00:13:05;5.73;;;5.13;;
10303;SDS011;5197;48.152;8.590;2023-09-07T00:15:35;6.40;;;5.43;;
10303;SDS011;5197;48.152;8.590;2023-09-07T00:18:04;5.83;;;5.30;;
10303;SDS011;5197;48.152;8.590;2023-09-07T00:20:32;8.03;;;5.40;;
10303;SDS011;5197;48.152;8.590;2023-09-07T00:23:00;5.40;;;4.90;;
10303;SDS011;5197;48.152;8.590;2023-09-07T00:25:27;5.93;;;5.10;;
10303;SDS011;5197;48.152;8.590;2023-09-07T00:27:54;6.43;;;5.33;;
10303;SDS011;5197;48.152;8.590;2023-09-07T00:30:21;5.80;;;5.27;;
10303;SDS011;5197;48.152;8.590;2023-09-07T00:32:48;6.07;;;5.40;;
10303;SDS011;5197;48.152;8.590;2023-09-07T00:35:15;7.07;;;5.77;;
10303;SDS011;5197;48.152;8.590;2023-09-07T00:37:42;5.73;;;5.23;;
10303;SDS011;5197;48.152;8.590;2023-09-07T00:40:09;6.70;;;5.50;;
10303;SDS011;5197;48.152;8.590;2023-09-07T00:42:36;7.60;;;6.20;;
10303;SDS011;5197;48.152;8.590;2023-09-07T00:45:04;6.90;;;5.60;;
10303;SDS011;5197;48.152;8.590;2023-09-07T00:47:31;10.63;;;5.30;;
10303;SDS011;5197;48.152;8.590;2023-09-07T00:50:01;8.80;;;5.80;;
10303;SDS011;5197;48.152;8.590;2023-09-07T00:52:29;6.07;;;5.33;;
10303;SDS011;5197;48.152;8.590;2023-09-07T00:54:59;6.33;;;5.80;;
10303;SDS011;5197;48.152;8.590;2023-09-07T00:57:27;7.13;;;5.53;;
10303;SDS011;5197;48.152;8.590;2023-09-07T00:59:54;5.80;;;5.30;;
10303;SDS011;5197;48.152;8.590;2023-09-07T01:02:21;6.37;;;5.77;;
10303;SDS011;5197;48.152;8.590;2023-09-07T01:04:48;6.07;;;5.47;;
10303;SDS011;5197;48.152;8.590;2023-09-07T01:07:17;6.73;;;5.40;;
10303;SDS011;5197;48.152;8.590;2023-09-07T01:09:56;5.90;;;5.40;;
10303;SDS011;5197;48.152;8.590;2023-09-07T01:12:24;6.07;;;5.57;;
10303;SDS011;5197;48.152;8.590;2023-09-07T01:14:51;5.50;;;5.00;;
10303;SDS011;5197;48.152;8.590;2023-09-07T01:17:19;7.23;;;5.97;;
10303;SDS011;5197;48.152;8.590;2023-09-07T01:19:48;6.87;;;5.63;;
10303;SDS011;5197;48.152;8.590;2023-09-07T01:22:20;5.67;;;5.17;;
10303;SDS011;5197;48.152;8.590;2023-09-07T01:24:50;6.17;;;5.63;;
10303;SDS011;5197;48.152;8.590;2023-09-07T01:27:21;6.43;;;5.83;;
10303;SDS011;5197;48.152;8.590;2023-09-07T01:29:48;6.30;;;5.67;;
10303;SDS011;5197;48.152;8.590;2023-09-07T01:32:15;6.60;;;6.00;;
10303;SDS011;5197;48.152;8.590;2023-09-07T01:34:42;5.93;;;5.43;;
10303;SDS011;5197;48.152;8.590;2023-09-07T01:37:09;7.93;;;6.00;;
10303;SDS011;5197;48.152;8.590;2023-09-07T01:39:36;6.07;;;5.47;;
10303;SDS011;5197;48.152;8.590;2023-09-07T01:42:03;6.67;;;5.93;;
10303;SDS011;5197;48.152;8.590;2023-09-07T01:44:30;6.33;;;5.73;;
10303;SDS011;5197;48.152;8.590;2023-09-07T01:46:57;6.30;;;5.70;;
10303;SDS011;5197;48.152;8.590;2023-09-07T01:49:24;9.07;;;6.03;;
10303;SDS011;5197;48.152;8.590;2023-09-07T01:51:51;8.23;;;5.90;;
10303;SDS011;5197;48.152;8.590;2023-09-07T01:54:18;6.10;;;5.60;;
10303;SDS011;5197;48.152;8.590;2023-09-07T01:56:47;6.47;;;5.87;;
10303;SDS011;5197;48.152;8.590;2023-09-07T01:59:14;5.93;;;5.40;;
10303;SDS011;5197;48.152;8.590;2023-09-07T02:01:41;6.07;;;5.47;;
10303;SDS011;5197;48.152;8.590;2023-09-07T02:04:08;6.57;;;5.50;;
10303;SDS011;5197;48.152;8.590;2023-09-07T02:06:35;6.50;;;5.90;;
10303;SDS011;5197;48.152;8.590;2023-09-07T02:09:02;6.63;;;5.40;;
10303;SDS011;5197;48.152;8.590;2023-09-07T02:11:31;6.70;;;6.00;;
10303;SDS011;5197;48.152;8.590;2023-09-07T02:13:58;6.57;;;5.67;;
10303;SDS011;5197;48.152;8.590;2023-09-07T02:16:25;6.57;;;5.63;;
10303;SDS011;5197;48.152;8.590;2023-09-07T02:19:00;10.63;;;5.90;;
10303;SDS011;5197;48.152;8.590;2023-09-07T02:21:29;5.67;;;5.27;;
10303;SDS011;5197;48.152;8.590;2023-09-07T02:23:56;6.20;;;5.50;;
10303;SDS011;5197;48.152;8.590;2023-09-07T02:26:23;6.17;;;5.57;;
10303;SDS011;5197;48.152;8.590;2023-09-07T02:28:50;6.57;;;5.07;;
10303;SDS011;5197;48.152;8.590;2023-09-07T02:31:17;6.37;;;5.70;;
10303;SDS011;5197;48.152;8.590;2023-09-07T02:33:44;7.20;;;6.03;;
10303;SDS011;5197;48.152;8.590;2023-09-07T02:36:11;6.77;;;6.23;;
10303;SDS011;5197;48.152;8.590;2023-09-07T02:38:38;6.00;;;5.50;;
10303;SDS011;5197;48.152;8.590;2023-09-07T02:41:05;7.00;;;6.00;;
10303;SDS011;5197;48.152;8.590;2023-09-07T02:43:32;6.03;;;5.40;;
10303;SDS011;5197;48.152;8.590;2023-09-07T02:45:59;6.10;;;5.43;;
10303;SDS011;5197;48.152;8.590;2023-09-07T02:48:26;5.80;;;5.30;;
10303;SDS011;5197;48.152;8.590;2023-09-07T02:50:53;8.17;;;5.37;;
10303;SDS011;5197;48.152;8.590;2023-09-07T02:53:20;6.00;;;5.40;;
10303;SDS011;5197;48.152;8.590;2023-09-07T02:55:47;5.80;;;5.30;;
10303;SDS011;5197;48.152;8.590;2023-09-07T02:58:14;7.17;;;5.53;;
10303;SDS011;5197;48.152;8.590;2023-09-07T03:00:41;6.97;;;5.67;;
10303;SDS011;5197;48.152;8.590;2023-09-07T03:03:11;8.17;;;6.00;;
10303;SDS011;5197;48.152;8.590;2023-09-07T03:05:39;6.40;;;5.80;;
10303;SDS011;5197;48.152;8.590;2023-09-07T03:08:07;5.97;;;5.40;;
10303;SDS011;5197;48.152;8.590;2023-09-07T03:10:35;6.83;;;6.23;;
10303;SDS011;5197;48.152;8.590;2023-09-07T03:13:04;6.60;;;6.00;;
10303;SDS011;5197;48.152;8.590;2023-09-07T03:15:34;6.83;;;6.00;;
10303;SDS011;5197;48.152;8.590;2023-09-07T03:18:02;7.37;;;5.90;;
10303;SDS011;5197;48.152;8.590;2023-09-07T03:20:29;7.93;;;5.50;;
10303;SDS011;5197;48.152;8.590;2023-09-07T03:22:59;6.10;;;5.60;;
10303;SDS011;5197;48.152;8.590;2023-09-07T03:25:25;6.23;;;5.63;;
10303;SDS011;5197;48.152;8.590;2023-09-07T03:27:52;5.67;;;5.10;;
10303;SDS011;5197;48.152;8.590;2023-09-07T03:30:19;8.13;;;6.43;;
10303;SDS011;5197;48.152;8.590;2023-09-07T03:32:46;6.87;;;6.27;;
10303;SDS011;5197;48.152;8.590;2023-09-07T03:35:13;6.37;;;5.40;;
10303;SDS011;5197;48.152;8.590;2023-09-07T03:37:42;6.60;;;6.10;;
10303;SDS011;5197;48.152;8.590;2023-09-07T03:40:09;5.90;;;5.40;;
10303;SDS011;5197;48.152;8.590;2023-09-07T03:42:36;6.50;;;5.93;;
10303;SDS011;5197;48.152;8.590;2023-09-07T03:45:03;6.33;;;5.67;;
10303;SDS011;5197;48.152;8.590;2023-09-07T03:47:31;6.67;;;6.07;;
10303;SDS011;5197;48.152;8.590;2023-09-07T03:49:58;7.23;;;5.50;;
10303;SDS011;5197;48.152;8.590;2023-09-07T03:52:25;7.67;;;5.60;;
10303;SDS011;5197;48.152;8.590;2023-09-07T03:54:53;6.50;;;5.20;;
10303;SDS011;5197;48.152;8.590;2023-09-07T03:57:22;6.17;;;5.60;;
10303;SDS011;5197;48.152;8.590;2023-09-07T03:59:50;6.43;;;5.33;;
10303;SDS011;5197;48.152;8.590;2023-09-07T04:02:17;6.00;;;5.40;;
10303;SDS011;5197;48.152;8.590;2023-09-07T04:04:48;6.00;;;5.40;;
10303;SDS011;5197;48.152;8.590;2023-09-07T04:07:16;7.07;;;5.63;;
10303;SDS011;5197;48.152;8.590;2023-09-07T04:09:46;5.67;;;4.90;;
10303;SDS011;5197;48.152;8.590;2023-09-07T04:12:13;5.87;;;5.37;;
10303;SDS011;5197;48.152;8.590;2023-09-07T04:14:40;6.37;;;5.77;;
10303;SDS011;5197;48.152;8.590;2023-09-07T04:17:08;6.10;;;5.60;;
10303;SDS011;5197;48.152;8.590;2023-09-07T04:19:35;6.80;;;6.17;;
10303;SDS011;5197;48.152;8.590;2023-09-07T04:22:02;6.80;;;6.20;;
10303;SDS011;5197;48.152;8.590;2023-09-07T04:24:30;6.17;;;5.67;;
10303;SDS011;5197;48.152;8.590;2023-09-07T04:27:00;7.33;;;6.10;;
10303;SDS011;5197;48.152;8.590;2023-09-07T04:29:28;8.43;;;6.00;;
10303;SDS011;5197;48.152;8.590;2023-09-07T04:31:55;7.40;;;5.73;;
10303;SDS011;5197;48.152;8.590;2023-09-07T04:34:22;6.37;;;5.73;;
10303;SDS011;5197;48.152;8.590;2023-09-07T04:36:49;6.97;;;6.27;;
10303;SDS011;5197;48.152;8.590;2023-09-07T04:39:16;7.03;;;5.93;;
10303;SDS011;5197;48.152;8.590;2023-09-07T04:41:44;7.97;;;6.37;;
10303;SDS011;5197;48.152;8.590;2023-09-07T04:44:11;8.80;;;6.07;;
10303;SDS011;5197;48.152;8.590;2023-09-07T04:46:38;6.53;;;5.93;;
10303;SDS011;5197;48.152;8.590;2023-09-07T04:49:05;7.70;;;6.07;;
10303;SDS011;5197;48.152;8.590;2023-09-07T04:51:33;10.90;;;5.60;;
10303;SDS011;5197;48.152;8.590;2023-09-07T04:54:00;7.93;;;6.27;;
10303;SDS011;5197;48.152;8.590;2023-09-07T04:56:30;6.50;;;5.63;;
10303;SDS011;5197;48.152;8.590;2023-09-07T04:58:57;6.57;;;5.93;;
10303;SDS011;5197;48.152;8.590;2023-09-07T05:01:24;6.23;;;5.60;;
10303;SDS011;5197;48.152;8.590;2023-09-07T05:03:51;6.13;;;5.60;;
10303;SDS011;5197;48.152;8.590;2023-09-07T05:06:20;6.63;;;5.93;;
10303;SDS011;5197;48.152;8.590;2023-09-07T05:08:49;5.80;;;5.30;;
10303;SDS011;5197;48.152;8.590;2023-09-07T05:11:16;8.13;;;5.60;;
10303;SDS011;5197;48.152;8.590;2023-09-07T05:13:43;6.97;;;6.27;;
10303;SDS011;5197;48.152;8.590;2023-09-07T05:16:10;7.13;;;5.90;;
10303;SDS011;5197;48.152;8.590;2023-09-07T05:18:37;6.27;;;5.77;;
10303;SDS011;5197;48.152;8.590;2023-09-07T05:21:14;7.03;;;5.50;;
10303;SDS011;5197;48.152;8.590;2023-09-07T05:23:41;7.30;;;5.40;;
10303;SDS011;5197;48.152;8.590;2023-09-07T05:26:09;6.20;;;5.60;;
10303;SDS011;5197;48.152;8.590;2023-09-07T05:28:36;6.77;;;5.50;;
10303;SDS011;5197;48.152;8.590;2023-09-07T05:31:03;7.77;;;6.10;;
10303;SDS011;5197;48.152;8.590;2023-09-07T05:33:30;6.83;;;6.13;;
10303;SDS011;5197;48.152;8.590;2023-09-07T05:35:57;6.43;;;5.43;;
10303;SDS011;5197;48.152;8.590;2023-09-07T05:38:24;6.33;;;5.80;;
10303;SDS011;5197;48.152;8.590;2023-09-07T05:40:51;6.03;;;5.43;;
10303;SDS011;5197;48.152;8.590;2023-09-07T05:43:21;6.27;;;5.50;;
10303;SDS011;5197;48.152;8.590;2023-09-07T05:45:48;5.80;;;5.30;;
10303;SDS011;5197;48.152;8.590;2023-09-07T05:48:15;8.77;;;5.90;;
10303;SDS011;5197;48.152;8.590;2023-09-07T05:50:43;20.03;;;7.47;;
10303;SDS011;5197;48.152;8.590;2023-09-07T05:53:11;6.57;;;5.97;;
10303;SDS011;5197;48.152;8.590;2023-09-07T05:55:38;7.27;;;6.40;;
10303;SDS011;5197;48.152;8.590;2023-09-07T05:58:06;8.90;;;5.37;;
10303;SDS011;5197;48.152;8.590;2023-09-07T06:00:34;10.17;;;4.90;;
10303;SDS011;5197;48.152;8.590;2023-09-07T06:03:02;6.93;;;5.13;;
10303;SDS011;5197;48.152;8.590;2023-09-07T06:05:29;5.13;;;4.63;;
10303;SDS011;5197;48.152;8.590;2023-09-07T06:07:57;5.57;;;4.90;;
10303;SDS011;5197;48.152;8.590;2023-09-07T06:10:24;8.03;;;5.73;;
10303;SDS011;5197;48.152;8.590;2023-09-07T06:12:50;10.40;;;5.97;;
10303;SDS011;5197;48.152;8.590;2023-09-07T06:15:17;6.20;;;5.50;;
10303;SDS011;5197;48.152;8.590;2023-09-07T06:17:44;9.57;;;5.50;;
10303;SDS011;5197;48.152;8.590;2023-09-07T06:20:12;7.47;;;5.23;;
10303;SDS011;5197;48.152;8.590;2023-09-07T06:22:39;6.97;;;6.00;;
10303;SDS011;5197;48.152;8.590;2023-09-07T06:25:06;7.23;;;5.07;;
10303;SDS011;5197;48.152;8.590;2023-09-07T06:27:33;5.20;;;4.70;;
10303;SDS011;5197;48.152;8.590;2023-09-07T06:30:01;5.40;;;4.40;;
10303;SDS011;5197;48.152;8.590;2023-09-07T06:32:29;4.30;;;3.97;;
10303;SDS011;5197;48.152;8.590;2023-09-07T06:34:56;4.60;;;4.20;;
10303;SDS011;5197;48.152;8.590;2023-09-07T06:37:23;5.07;;;3.97;;
10303;SDS011;5197;48.152;8.590;2023-09-07T06:39:51;4.83;;;3.90;;
10303;SDS011;5197;48.152;8.590;2023-09-07T06:42:18;4.40;;;4.00;;
10303;SDS011;5197;48.152;8.590;2023-09-07T06:44:44;3.92;;;3.63;;
10303;SDS011;5197;48.152;8.590;2023-09-07T06:47:11;4.43;;;3.80;;
10303;SDS011;5197;48.152;8.590;2023-09-07T06:49:38;5.00;;;4.10;;
10303;SDS011;5197;48.152;8.590;2023-09-07T06:52:05;5.72;;;3.72;;
10303;SDS011;5197;48.152;8.590;2023-09-07T06:54:32;4.88;;;4.38;;
10303;SDS011;5197;48.152;8.590;2023-09-07T06:56:59;4.13;;;3.75;;
10303;SDS011;5197;48.152;8.590;2023-09-07T06:59:26;4.78;;;3.70;;
10303;SDS011;5197;48.152;8.590;2023-09-07T07:01:53;4.15;;;3.83;;
10303;SDS011;5197;48.152;8.590;2023-09-07T07:04:20;4.20;;;3.53;;
10303;SDS011;5197;48.152;8.590;2023-09-07T07:06:47;4.28;;;3.55;;
10303;SDS011;5197;48.152;8.590;2023-09-07T07:09:14;5.05;;;3.60;;
10303;SDS011;5197;48.152;8.590;2023-09-07T07:11:43;3.67;;;3.47;;
10303;SDS011;5197;48.152;8.590;2023-09-07T07:14:09;3.90;;;3.70;;
10303;SDS011;5197;48.152;8.590;2023-09-07T07:16:38;4.78;;;3.92;;
10303;SDS011;5197;48.152;8.590;2023-09-07T07:19:05;4.70;;;4.20;;
10303;SDS011;5197;48.152;8.590;2023-09-07T07:21:32;4.57;;;4.13;;
10303;SDS011;5197;48.152;8.590;2023-09-07T07:23:58;4.70;;;4.40;;
10303;SDS011;5197;48.152;8.590;2023-09-07T07:26:25;8.95;;;4.13;;
10303;SDS011;5197;48.152;8.590;2023-09-07T07:28:52;5.57;;;4.15;;
10303;SDS011;5197;48.152;8.590;2023-09-07T07:31:19;5.32;;;4.00;;
10303;SDS011;5197;48.152;8.590;2023-09-07T07:33:46;5.40;;;4.13;;
10303;SDS011;5197;48.152;8.590;2023-09-07T07:36:14;4.88;;;4.40;;
10303;SDS011;5197;48.152;8.590;2023-09-07T07:38:42;4.18;;;3.88;;
10303;SDS011;5197;48.152;8.590;2023-09-07T07:41:09;4.18;;;3.70;;
10303;SDS011;5197;48.152;8.590;2023-09-07T07:43:36;6.03;;;3.90;;
10303;SDS011;5197;48.152;8.590;2023-09-07T07:46:03;12.30;;;4.78;;
10303;SDS011;5197;48.152;8.590;2023-09-07T07:48:31;3.88;;;3.67;;
10303;SDS011;5197;48.152;8.590;2023-09-07T07:51:02;4.43;;;4.03;;
10303;SDS011;5197;48.152;8.590;2023-09-07T07:53:30;6.72;;;4.18;;
10303;SDS011;5197;48.152;8.590;2023-09-07T07:55:58;4.57;;;4.25;;
10303;SDS011;5197;48.152;8.590;2023-09-07T07:58:25;4.35;;;3.95;;
10303;SDS011;5197;48.152;8.590;2023-09-07T08:00:53;6.70;;;4.50;;
10303;SDS011;5197;48.152;8.590;2023-09-07T08:03:24;3.88;;;3.58;;
10303;SDS011;5197;48.152;8.590;2023-09-07T08:05:51;3.90;;;3.60;;
10303;SDS011;5197;48.152;8.590;2023-09-07T08:08:18;4.60;;;4.30;;
10303;SDS011;5197;48.152;8.590;2023-09-07T08:10:45;10.82;;;6.55;;
10303;SDS011;5197;48.152;8.590;2023-09-07T08:13:12;6.82;;;5.32;;
10303;SDS011;5197;48.152;8.590;2023-09-07T08:15:40;4.72;;;4.40;;
10303;SDS011;5197;48.152;8.590;2023-09-07T08:18:08;5.60;;;4.10;;
10303;SDS011;5197;48.152;8.590;2023-09-07T08:20:36;6.13;;;4.20;;
10303;SDS011;5197;48.152;8.590;2023-09-07T08:23:05;26.65;;;6.13;;
10303;SDS011;5197;48.152;8.590;2023-09-07T08:25:34;6.82;;;6.03;;
10303;SDS011;5197;48.152;8.590;2023-09-07T08:28:01;7.72;;;5.93;;
10303;SDS011;5197;48.152;8.590;2023-09-07T08:30:32;4.38;;;4.07;;
10303;SDS011;5197;48.152;8.590;2023-09-07T08:33:00;4.55;;;4.22;;
10303;SDS011;5197;48.152;8.590;2023-09-07T08:35:28;5.85;;;4.30;;
10303;SDS011;5197;48.152;8.590;2023-09-07T08:37:56;4.10;;;3.75;;
10303;SDS011;5197;48.152;8.590;2023-09-07T08:40:26;6.05;;;4.22;;
10303;SDS011;5197;48.152;8.590;2023-09-07T08:42:54;4.65;;;4.35;;
10303;SDS011;5197;48.152;8.590;2023-09-07T08:45:21;5.57;;;5.13;;
10303;SDS011;5197;48.152;8.590;2023-09-07T08:47:52;4.97;;;4.30;;
10303;SDS011;5197;48.152;8.590;2023-09-07T08:50:21;6.22;;;4.15;;
10303;SDS011;5197;48.152;8.590;2023-09-07T08:52:53;4.20;;;3.95;;
10303;SDS011;5197;48.152;8.590;2023-09-07T08:55:20;4.63;;;4.30;;
10303;SDS011;5197;48.152;8.590;2023-09-07T08:57:48;8.95;;;4.53;;
10303;SDS011;5197;48.152;8.590;2023-09-07T09:00:16;4.93;;;4.28;;
10303;SDS011;5197;48.152;8.590;2023-09-07T09:02:46;5.00;;;4.40;;
10303;SDS011;5197;48.152;8.590;2023-09-07T09:05:16;4.57;;;4.18;;
10303;SDS011;5197;48.152;8.590;2023-09-07T09:07:46;5.20;;;4.63;;
10303;SDS011;5197;48.152;8.590;2023-09-07T09:10:13;7.57;;;4.30;;
10303;SDS011;5197;48.152;8.590;2023-09-07T09:12:46;4.60;;;3.95;;
10303;SDS011;5197;48.152;8.590;2023-09-07T09:15:13;4.50;;;4.07;;
10303;SDS011;5197;48.152;8.590;2023-09-07T09:17:41;4.68;;;4.38;;
10303;SDS011;5197;48.152;8.590;2023-09-07T09:20:19;4.72;;;4.30;;
10303;SDS011;5197;48.152;8.590;2023-09-07T09:22:51;13.18;;;4.15;;
10303;SDS011;5197;48.152;8.590;2023-09-07T09:25:19;4.80;;;4.40;;
10303;SDS011;5197;48.152;8.590;2023-09-07T09:27:47;6.38;;;4.32;;
10303;SDS011;5197;48.152;8.590;2023-09-07T09:30:14;4.50;;;4.00;;
10303;SDS011;5197;48.152;8.590;2023-09-07T09:32:43;4.72;;;4.32;;
10303;SDS011;5197;48.152;8.590;2023-09-07T09:35:10;4.53;;;3.95;;
10303;SDS011;5197;48.152;8.590;2023-09-07T09:37:43;5.72;;;4.38;;
10303;SDS011;5197;48.152;8.590;2023-09-07T09:40:15;5.15;;;4.20;;
10303;SDS011;5197;48.152;8.590;2023-09-07T09:42:43;4.30;;;3.97;;
10303;SDS011;5197;48.152;8.590;2023-09-07T09:45:11;4.68;;;4.28;;
10303;SDS011;5197;48.152;8.590;2023-09-07T09:47:39;5.72;;;3.78;;
10303;SDS011;5197;48.152;8.590;2023-09-07T09:50:08;5.40;;;4.13;;
10303;SDS011;5197;48.152;8.590;2023-09-07T09:52:37;4.75;;;4.20;;
10303;SDS011;5197;48.152;8.590;2023-09-07T09:55:05;3.85;;;3.65;;
10303;SDS011;5197;48.152;8.590;2023-09-07T09:57:34;5.70;;;3.78;;
10303;SDS011;5197;48.152;8.590;2023-09-07T10:00:03;6.53;;;4.03;;
10303;SDS011;5197;48.152;8.590;2023-09-07T10:02:44;4.25;;;3.95;;
10303;SDS011;5197;48.152;8.590;2023-09-07T10:05:17;4.93;;;4.53;;
10303;SDS011;5197;48.152;8.590;2023-09-07T10:07:49;5.63;;;3.70;;
10303;SDS011;5197;48.152;8.590;2023-09-07T10:10:19;5.63;;;4.05;;
10303;SDS011;5197;48.152;8.590;2023-09-07T10:12:52;4.10;;;3.78;;
10303;SDS011;5197;48.152;8.590;2023-09-07T10:15:26;5.47;;;3.70;;
10303;SDS011;5197;48.152;8.590;2023-09-07T10:23:14;4.60;;;4.30;;
10303;SDS011;5197;48.152;8.590;2023-09-07T10:25:41;4.35;;;3.97;;
10303;SDS011;5197;48.152;8.590;2023-09-07T10:28:20;4.03;;;3.70;;
10303;SDS011;5197;48.152;8.590;2023-09-07T10:31:03;5.78;;;3.70;;
10303;SDS011;5197;48.152;8.590;2023-09-07T10:33:32;4.57;;;3.78;;
10303;SDS011;5197;48.152;8.590;2023-09-07T10:36:00;4.28;;;3.88;;
10303;SDS011;5197;48.152;8.590;2023-09-07T10:38:33;6.80;;;4.00;;
10303;SDS011;5197;48.152;8.590;2023-09-07T10:41:03;5.68;;;3.78;;
10303;SDS011;5197;48.152;8.590;2023-09-07T10:43:31;4.90;;;4.43;;
10303;SDS011;5197;48.152;8.590;2023-09-07T10:46:00;4.63;;;3.90;;
10303;SDS011;5197;48.152;8.590;2023-09-07T10:48:28;4.30;;;3.83;;
10303;SDS011;5197;48.152;8.590;2023-09-07T10:50:57;4.00;;;3.63;;
10303;SDS011;5197;48.152;8.590;2023-09-07T10:53:28;4.78;;;3.85;;
10303;SDS011;5197;48.152;8.590;2023-09-07T10:55:59;3.90;;;3.60;;
10303;SDS011;5197;48.152;8.590;2023-09-07T10:58:32;5.38;;;4.20;;
10303;SDS011;5197;48.152;8.590;2023-09-07T11:01:01;4.68;;;4.25;;
10303;SDS011;5197;48.152;8.590;2023-09-07T11:03:31;4.20;;;3.90;;
10303;SDS011;5197;48.152;8.590;2023-09-07T11:06:01;3.28;;;3.08;;
10303;SDS011;5197;48.152;8.590;2023-09-07T11:08:33;4.57;;;3.67;;
10303;SDS011;5197;48.152;8.590;2023-09-07T11:11:01;5.10;;;3.50;;
10303;SDS011;5197;48.152;8.590;2023-09-07T11:13:29;3.88;;;3.50;;
10303;SDS011;5197;48.152;8.590;2023-09-07T11:15:57;4.28;;;3.97;;
10303;SDS011;5197;48.152;8.590;2023-09-07T11:18:25;4.28;;;3.67;;
10303;SDS011;5197;48.152;8.590;2023-09-07T11:20:53;4.03;;;3.70;;
10303;SDS011;5197;48.152;8.590;2023-09-07T11:23:21;7.82;;;4.10;;
10303;SDS011;5197;48.152;8.590;2023-09-07T11:25:49;3.78;;;3.58;;
10303;SDS011;5197;48.152;8.590;2023-09-07T11:28:18;4.03;;;3.55;;
10303;SDS011;5197;48.152;8.590;2023-09-07T11:30:52;4.40;;;3.80;;
10303;SDS011;5197;48.152;8.590;2023-09-07T11:33:21;3.80;;;3.53;;
10303;SDS011;5197;48.152;8.590;2023-09-07T11:35:49;3.88;;;3.35;;
10303;SDS011;5197;48.152;8.590;2023-09-07T11:38:17;3.63;;;3.42;;
10303;SDS011;5197;48.152;8.590;2023-09-07T11:40:44;4.53;;;3.40;;
10303;SDS011;5197;48.152;8.590;2023-09-07T11:43:12;4.10;;;3.80;;
10303;SDS011;5197;48.152;8.590;2023-09-07T11:45:43;3.90;;;3.60;;
10303;SDS011;5197;48.152;8.590;2023-09-07T11:48:11;4.10;;;3.30;;
10303;SDS011;5197;48.152;8.590;2023-09-07T11:50:38;3.40;;;3.10;;
10303;SDS011;5197;48.152;8.590;2023-09-07T11:53:06;4.63;;;3.33;;
10303;SDS011;5197;48.152;8.590;2023-09-07T11:55:34;3.30;;;3.00;;
10303;SDS011;5197;48.152;8.590;2023-09-07T11:58:02;3.40;;;3.15;;
10303;SDS011;5197;48.152;8.590;2023-09-07T12:00:33;4.50;;;3.22;;
10303;SDS011;5197;48.152;8.590;2023-09-07T12:03:00;3.35;;;3.08;;
10303;SDS011;5197;48.152;8.590;2023-09-07T12:05:27;3.85;;;2.83;;
10303;SDS011;5197;48.152;8.590;2023-09-07T12:07:54;3.10;;;2.90;;
10303;SDS011;5197;48.152;8.590;2023-09-07T12:10:21;3.17;;;2.90;;
10303;SDS011;5197;48.152;8.590;2023-09-07T12:12:48;3.25;;;3.08;;
10303;SDS011;5197;48.152;8.590;2023-09-07T12:15:15;3.55;;;3.28;;
10303;SDS011;5197;48.152;8.590;2023-09-07T12:17:42;3.30;;;3.00;;
10303;SDS011;5197;48.152;8.590;2023-09-07T12:20:09;3.22;;;2.83;;
10303;SDS011;5197;48.152;8.590;2023-09-07T12:22:37;3.28;;;3.08;;
10303;SDS011;5197;48.152;8.590;2023-09-07T12:25:05;3.08;;;2.88;;
10303;SDS011;5197;48.152;8.590;2023-09-07T12:27:41;3.80;;;2.90;;
10303;SDS011;5197;48.152;8.590;2023-09-07T12:30:17;2.80;;;2.70;;
10303;SDS011;5197;48.152;8.590;2023-09-07T12:32:47;3.15;;;2.70;;
10303;SDS011;5197;48.152;8.590;2023-09-07T12:35:14;3.55;;;3.13;;
10303;SDS011;5197;48.152;8.590;2023-09-07T12:37:43;3.08;;;2.85;;
10303;SDS011;5197;48.152;8.590;2023-09-07T12:40:10;2.80;;;2.58;;
10303;SDS011;5197;48.152;8.590;2023-09-07T12:42:39;2.67;;;2.47;;
10303;SDS011;5197;48.152;8.590;2023-09-07T12:45:11;2.75;;;2.58;;
10303;SDS011;5197;48.152;8.590;2023-09-07T12:47:39;4.32;;;2.80;;
10303;SDS011;5197;48.152;8.590;2023-09-07T12:50:06;4.13;;;3.08;;
10303;SDS011;5197;48.152;8.590;2023-09-07T12:52:34;3.08;;;2.85;;
10303;SDS011;5197;48.152;8.590;2023-09-07T12:55:05;3.08;;;2.63;;
10303;SDS011;5197;48.152;8.590;2023-09-07T12:57:34;3.65;;;2.65;;
10303;SDS011;5197;48.152;8.590;2023-09-07T13:00:03;3.10;;;2.60;;
10303;SDS011;5197;48.152;8.590;2023-09-07T13:02:30;2.78;;;2.63;;
10303;SDS011;5197;48.152;8.590;2023-09-07T13:04:58;2.50;;;2.40;;
10303;SDS011;5197;48.152;8.590;2023-09-07T13:07:25;2.90;;;2.70;;
10303;SDS011;5197;48.152;8.590;2023-09-07T13:09:52;3.10;;;2.83;;
10303;SDS011;5197;48.152;8.590;2023-09-07T13:12:19;2.72;;;2.53;;
10303;SDS011;5197;48.152;8.590;2023-09-07T13:14:46;2.92;;;2.72;;
10303;SDS011;5197;48.152;8.590;2023-09-07T13:17:13;3.33;;;2.80;;
10303;SDS011;5197;48.152;8.590;2023-09-07T13:19:41;2.90;;;2.70;;
10303;SDS011;5197;48.152;8.590;2023-09-07T13:22:08;3.10;;;2.90;;
10303;SDS011;5197;48.152;8.590;2023-09-07T13:24:36;3.30;;;3.00;;
10303;SDS011;5197;48.152;8.590;2023-09-07T13:27:03;2.90;;;2.70;;
10303;SDS011;5197;48.152;8.590;2023-09-07T13:29:33;3.85;;;2.90;;
10303;SDS011;5197;48.152;8.590;2023-09-07T13:32:00;2.80;;;2.70;;
10303;SDS011;5197;48.152;8.590;2023-09-07T13:34:27;3.13;;;2.90;;
10303;SDS011;5197;48.152;8.590;2023-09-07T13:36:54;3.35;;;3.10;;
10303;SDS011;5197;48.152;8.590;2023-09-07T13:39:22;3.25;;;3.03;;
10303;SDS011;5197;48.152;8.590;2023-09-07T13:41:49;4.60;;;3.60;;
10303;SDS011;5197;48.152;8.590;2023-09-07T13:44:16;3.30;;;3.10;;
10303;SDS011;5197;48.152;8.590;2023-09-07T13:46:43;3.42;;;3.10;;
10303;SDS011;5197;48.152;8.590;2023-09-07T13:49:11;6.18;;;3.00;;
10303;SDS011;5197;48.152;8.590;2023-09-07T13:51:42;3.47;;;3.22;;
10303;SDS011;5197;48.152;8.590;2023-09-07T13:54:09;4.53;;;3.30;;
10303;SDS011;5197;48.152;8.590;2023-09-07T13:56:36;3.58;;;3.38;;
10303;SDS011;5197;48.152;8.590;2023-09-07T13:59:03;3.38;;;3.10;;
10303;SDS011;5197;48.152;8.590;2023-09-07T14:01:31;3.53;;;3.25;;
10303;SDS011;5197;48.152;8.590;2023-09-07T14:03:59;3.90;;;3.60;;
10303;SDS011;5197;48.152;8.590;2023-09-07T14:06:26;3.72;;;3.38;;
10303;SDS011;5197;48.152;8.590;2023-09-07T14:08:53;3.33;;;3.20;;
10303;SDS011;5197;48.152;8.590;2023-09-07T14:11:20;3.55;;;3.25;;
10303;SDS011;5197;48.152;8.590;2023-09-07T14:13:49;5.68;;;3.60;;
10303;SDS011;5197;48.152;8.590;2023-09-07T14:16:18;6.25;;;3.63;;
10303;SDS011;5197;48.152;8.590;2023-09-07T14:18:46;3.78;;;3.40;;
10303;SDS011;5197;48.152;8.590;2023-09-07T14:21:14;3.75;;;3.45;;
10303;SDS011;5197;48.152;8.590;2023-09-07T14:23:42;4.65;;;3.38;;
10303;SDS011;5197;48.152;8.590;2023-09-07T14:26:09;5.95;;;3.38;;
10303;SDS011;5197;48.152;8.590;2023-09-07T14:28:36;6.05;;;3.33;;
10303;SDS011;5197;48.152;8.590;2023-09-07T14:31:05;3.65;;;3.45;;
10303;SDS011;5197;48.152;8.590;2023-09-07T14:33:34;5.40;;;3.30;;
10303;SDS011;5197;48.152;8.590;2023-09-07T14:36:05;3.50;;;3.30;;
10303;SDS011;5197;48.152;8.590;2023-09-07T14:38:33;5.22;;;3.08;;
10303;SDS011;5197;48.152;8.590;2023-09-07T14:41:07;4.50;;;3.70;;
10303;SDS011;5197;48.152;8.590;2023-09-07T14:43:37;6.05;;;3.65;;
10303;SDS011;5197;48.152;8.590;2023-09-07T14:46:04;3.40;;;3.10;;
10303;SDS011;5197;48.152;8.590;2023-09-07T14:48:32;5.05;;;3.60;;
10303;SDS011;5197;48.152;8.590;2023-09-07T14:50:59;4.10;;;3.55;;
10303;SDS011;5197;48.152;8.590;2023-09-07T14:53:25;3.90;;;3.65;;
10303;SDS011;5197;48.152;8.590;2023-09-07T14:55:52;4.72;;;3.90;;
10303;SDS011;5197;48.152;8.590;2023-09-07T14:58:19;3.65;;;3.45;;
10303;SDS011;5197;48.152;8.590;2023-09-07T15:00:46;4.57;;;3.80;;
10303;SDS011;5197;48.152;8.590;2023-09-07T15:03:14;3.88;;;3.45;;
10303;SDS011;5197;48.152;8.590;2023-09-07T15:05:40;3.60;;;3.40;;
10303;SDS011;5197;48.152;8.590;2023-09-07T15:08:07;3.80;;;3.50;;
10303;SDS011;5197;48.152;8.590;2023-09-07T15:10:35;3.60;;;3.30;;